sensor_id;sensor_type;location;lat;lon;timestamp;temperature;humidity
34640;DHT22;22600;48.186;11.526;2023-04-07T00:00:21;22.50;52.50
34640;DHT22;22600;48.186;11.526;2023-04-07T00:02:47;22.50;52.40
34640;DHT22;22600;48.186;11.526;2023-04-07T00:05:13;22.50;52.30
34640;DHT22;22600;48.186;11.526;2023-04-07T00:07:39;22.50;52.40
34640;DHT22;22600;48.186;11.526;2023-04-07T00:10:04;22.50;52.60
34640;DHT22;22600;48.186;11.526;2023-04-07T00:12:30;22.50;52.40
34640;DHT22;22600;48.186;11.526;2023-04-07T00:14:56;22.50;52.40
34640;DHT22;22600;48.186;11.526;2023-04-07T00:17:21;22.50;52.30
34640;DHT22;22600;48.186;11.526;2023-04-07T00:19:46;22.50;52.20
34640;DHT22;22600;48.186;11.526;2023-04-07T00:22:12;22.50;52.30
34640;DHT22;22600;48.186;11.526;2023-04-07T00:24:37;22.50;52.40
34640;DHT22;22600;48.186;11.526;2023-04-07T00:27:03;22.50;52.40
34640;DHT22;22600;48.186;11.526;2023-04-07T00:29:28;22.50;52.40
34640;DHT22;22600;48.186;11.526;2023-04-07T00:31:54;22.50;52.40
34640;DHT22;22600;48.186;11.526;2023-04-07T00:34:20;22.50;52.50
34640;DHT22;22600;48.186;11.526;2023-04-07T00:36:45;22.50;52.90
34640;DHT22;22600;48.186;11.526;2023-04-07T00:39:16;22.50;53.20
34640;DHT22;22600;48.186;11.526;2023-04-07T00:41:42;25.20;54.40
34640;DHT22;22600;48.186;11.526;2023-04-07T00:44:08;22.50;53.10
34640;DHT22;22600;48.186;11.526;2023-04-07T00:46:33;22.40;53.10
34640;DHT22;22600;48.186;11.526;2023-04-07T00:48:59;22.50;53.40
34640;DHT22;22600;48.186;11.526;2023-04-07T00:51:24;22.50;53.10
34640;DHT22;22600;48.186;11.526;2023-04-07T00:53:51;22.50;52.80
34640;DHT22;22600;48.186;11.526;2023-04-07T00:56:16;22.40;52.70
34640;DHT22;22600;48.186;11.526;2023-04-07T00:58:42;22.50;52.70
34640;DHT22;22600;48.186;11.526;2023-04-07T01:01:08;22.50;53.10
34640;DHT22;22600;48.186;11.526;2023-04-07T01:03:57;22.50;52.90
34640;DHT22;22600;48.186;11.526;2023-04-07T01:06:21;22.50;52.90
34640;DHT22;22600;48.186;11.526;2023-04-07T01:09:11;22.40;52.90
34640;DHT22;22600;48.186;11.526;2023-04-07T01:11:41;22.50;53.00
34640;DHT22;22600;48.186;11.526;2023-04-07T01:14:08;22.60;53.20
34640;DHT22;22600;48.186;11.526;2023-04-07T01:16:41;22.40;53.10
34640;DHT22;22600;48.186;11.526;2023-04-07T01:22:10;22.40;53.00
34640;DHT22;22600;48.186;11.526;2023-04-07T01:27:24;22.50;52.90
34640;DHT22;22600;48.186;11.526;2023-04-07T01:29:57;23.10;53.30
34640;DHT22;22600;48.186;11.526;2023-04-07T01:32:25;22.40;52.90
34640;DHT22;22600;48.186;11.526;2023-04-07T01:34:51;22.40;53.00
34640;DHT22;22600;48.186;11.526;2023-04-07T01:37:18;22.40;52.90
34640;DHT22;22600;48.186;11.526;2023-04-07T01:39:44;22.40;52.70
34640;DHT22;22600;48.186;11.526;2023-04-07T01:42:10;22.50;52.90
34640;DHT22;22600;48.186;11.526;2023-04-07T01:44:36;22.40;52.50
34640;DHT22;22600;48.186;11.526;2023-04-07T01:47:02;22.40;52.50
34640;DHT22;22600;48.186;11.526;2023-04-07T01:49:29;22.40;52.50
34640;DHT22;22600;48.186;11.526;2023-04-07T01:51:55;22.40;52.60
34640;DHT22;22600;48.186;11.526;2023-04-07T01:54:21;22.40;53.60
34640;DHT22;22600;48.186;11.526;2023-04-07T01:56:47;22.50;52.90
34640;DHT22;22600;48.186;11.526;2023-04-07T01:59:12;22.40;52.90
34640;DHT22;22600;48.186;11.526;2023-04-07T02:01:38;22.40;52.90
34640;DHT22;22600;48.186;11.526;2023-04-07T02:04:05;22.40;53.00
34640;DHT22;22600;48.186;11.526;2023-04-07T02:06:37;22.40;53.00
34640;DHT22;22600;48.186;11.526;2023-04-07T02:09:05;22.40;53.10
34640;DHT22;22600;48.186;11.526;2023-04-07T02:11:31;22.40;53.20
34640;DHT22;22600;48.186;11.526;2023-04-07T02:13:57;22.40;53.20
34640;DHT22;22600;48.186;11.526;2023-04-07T02:16:26;22.40;53.10
34640;DHT22;22600;48.186;11.526;2023-04-07T02:18:52;25.40;54.70
34640;DHT22;22600;48.186;11.526;2023-04-07T02:21:19;25.40;54.60
34640;DHT22;22600;48.186;11.526;2023-04-07T02:23:45;22.40;52.50
34640;DHT22;22600;48.186;11.526;2023-04-07T02:26:11;22.40;53.10
34640;DHT22;22600;48.186;11.526;2023-04-07T02:28:36;22.40;53.10
34640;DHT22;22600;48.186;11.526;2023-04-07T02:31:01;22.40;53.20
34640;DHT22;22600;48.186;11.526;2023-04-07T02:33:27;22.40;53.20
34640;DHT22;22600;48.186;11.526;2023-04-07T02:35:52;22.30;53.30
34640;DHT22;22600;48.186;11.526;2023-04-07T02:38:18;22.40;53.50
34640;DHT22;22600;48.186;11.526;2023-04-07T02:40:43;22.40;53.50
34640;DHT22;22600;48.186;11.526;2023-04-07T02:43:09;22.40;53.40
34640;DHT22;22600;48.186;11.526;2023-04-07T02:45:35;22.40;53.50
34640;DHT22;22600;48.186;11.526;2023-04-07T02:48:00;22.40;53.60
34640;DHT22;22600;48.186;11.526;2023-04-07T02:50:26;22.40;53.50
34640;DHT22;22600;48.186;11.526;2023-04-07T02:52:53;22.40;53.10
34640;DHT22;22600;48.186;11.526;2023-04-07T02:55:18;22.40;52.90
34640;DHT22;22600;48.186;11.526;2023-04-07T02:57:44;22.30;52.90
34640;DHT22;22600;48.186;11.526;2023-04-07T03:00:10;22.40;52.80
34640;DHT22;22600;48.186;11.526;2023-04-07T03:02:35;22.40;53.10
34640;DHT22;22600;48.186;11.526;2023-04-07T03:05:01;22.40;53.20
34640;DHT22;22600;48.186;11.526;2023-04-07T03:07:28;22.40;53.40
34640;DHT22;22600;48.186;11.526;2023-04-07T03:09:56;22.50;53.40
34640;DHT22;22600;48.186;11.526;2023-04-07T03:12:21;22.40;53.50
34640;DHT22;22600;48.186;11.526;2023-04-07T03:14:47;22.40;53.60
34640;DHT22;22600;48.186;11.526;2023-04-07T03:17:13;22.40;53.50
34640;DHT22;22600;48.186;11.526;2023-04-07T03:19:39;22.40;53.30
34640;DHT22;22600;48.186;11.526;2023-04-07T03:22:04;22.40;53.40
34640;DHT22;22600;48.186;11.526;2023-04-07T03:24:30;22.40;53.50
34640;DHT22;22600;48.186;11.526;2023-04-07T03:26:55;22.40;53.60
34640;DHT22;22600;48.186;11.526;2023-04-07T03:29:23;22.40;53.70
34640;DHT22;22600;48.186;11.526;2023-04-07T03:31:48;22.40;53.70
34640;DHT22;22600;48.186;11.526;2023-04-07T03:34:14;22.30;53.70
34640;DHT22;22600;48.186;11.526;2023-04-07T03:36:39;22.40;53.80
34640;DHT22;22600;48.186;11.526;2023-04-07T03:39:05;22.40;53.70
34640;DHT22;22600;48.186;11.526;2023-04-07T03:41:31;22.40;53.70
34640;DHT22;22600;48.186;11.526;2023-04-07T03:43:56;22.40;53.70
34640;DHT22;22600;48.186;11.526;2023-04-07T03:46:22;22.40;53.50
34640;DHT22;22600;48.186;11.526;2023-04-07T03:48:47;22.40;53.50
34640;DHT22;22600;48.186;11.526;2023-04-07T03:51:13;22.40;53.50
34640;DHT22;22600;48.186;11.526;2023-04-07T03:53:38;22.40;53.80
34640;DHT22;22600;48.186;11.526;2023-04-07T03:56:04;22.40;53.80
34640;DHT22;22600;48.186;11.526;2023-04-07T03:58:30;22.40;53.90
34640;DHT22;22600;48.186;11.526;2023-04-07T04:00:55;22.40;53.90
34640;DHT22;22600;48.186;11.526;2023-04-07T04:03:21;22.30;53.70
34640;DHT22;22600;48.186;11.526;2023-04-07T04:05:46;22.40;53.60
34640;DHT22;22600;48.186;11.526;2023-04-07T04:08:12;22.40;53.90
34640;DHT22;22600;48.186;11.526;2023-04-07T04:10:37;22.40;53.70
34640;DHT22;22600;48.186;11.526;2023-04-07T04:13:03;22.30;54.10
34640;DHT22;22600;48.186;11.526;2023-04-07T04:15:31;22.30;54.00
34640;DHT22;22600;48.186;11.526;2023-04-07T04:17:56;22.40;53.50
34640;DHT22;22600;48.186;11.526;2023-04-07T04:20:22;22.60;54.10
34640;DHT22;22600;48.186;11.526;2023-04-07T04:22:47;22.30;53.80
34640;DHT22;22600;48.186;11.526;2023-04-07T04:25:13;22.30;53.50
34640;DHT22;22600;48.186;11.526;2023-04-07T04:27:39;22.30;53.70
34640;DHT22;22600;48.186;11.526;2023-04-07T04:30:04;22.40;53.80
34640;DHT22;22600;48.186;11.526;2023-04-07T04:32:30;22.40;53.80
34640;DHT22;22600;48.186;11.526;2023-04-07T04:34:56;22.30;53.80
34640;DHT22;22600;48.186;11.526;2023-04-07T04:37:22;22.30;53.90
34640;DHT22;22600;48.186;11.526;2023-04-07T04:39:47;22.40;54.00
34640;DHT22;22600;48.186;11.526;2023-04-07T04:42:13;22.30;54.00
34640;DHT22;22600;48.186;11.526;2023-04-07T04:44:38;22.30;54.00
34640;DHT22;22600;48.186;11.526;2023-04-07T04:47:04;22.30;54.10
34640;DHT22;22600;48.186;11.526;2023-04-07T04:49:30;22.30;53.70
34640;DHT22;22600;48.186;11.526;2023-04-07T04:51:55;22.30;53.90
34640;DHT22;22600;48.186;11.526;2023-04-07T04:54:21;23.60;54.60
34640;DHT22;22600;48.186;11.526;2023-04-07T04:56:46;21.70;53.70
34640;DHT22;22600;48.186;11.526;2023-04-07T04:59:12;22.40;54.10
34640;DHT22;22600;48.186;11.526;2023-04-07T05:01:38;22.30;54.10
34640;DHT22;22600;48.186;11.526;2023-04-07T05:04:03;21.60;53.70
34640;DHT22;22600;48.186;11.526;2023-04-07T05:06:29;22.30;54.00
34640;DHT22;22600;48.186;11.526;2023-04-07T05:08:55;22.40;54.00
34640;DHT22;22600;48.186;11.526;2023-04-07T05:11:21;22.30;54.00
34640;DHT22;22600;48.186;11.526;2023-04-07T05:13:46;22.40;54.00
34640;DHT22;22600;48.186;11.526;2023-04-07T05:16:12;22.40;54.10
34640;DHT22;22600;48.186;11.526;2023-04-07T05:18:37;22.30;54.00
34640;DHT22;22600;48.186;11.526;2023-04-07T05:21:03;22.30;54.20
34640;DHT22;22600;48.186;11.526;2023-04-07T05:23:28;22.30;54.10
34640;DHT22;22600;48.186;11.526;2023-04-07T05:25:54;22.30;54.20
34640;DHT22;22600;48.186;11.526;2023-04-07T05:28:19;22.30;54.20
34640;DHT22;22600;48.186;11.526;2023-04-07T05:30:45;22.40;54.10
34640;DHT22;22600;48.186;11.526;2023-04-07T05:33:11;22.30;54.30
34640;DHT22;22600;48.186;11.526;2023-04-07T05:35:37;22.30;54.40
34640;DHT22;22600;48.186;11.526;2023-04-07T05:38:03;22.30;54.10
34640;DHT22;22600;48.186;11.526;2023-04-07T05:40:28;22.30;54.20
34640;DHT22;22600;48.186;11.526;2023-04-07T05:42:55;22.30;54.10
34640;DHT22;22600;48.186;11.526;2023-04-07T05:45:20;22.30;54.10
34640;DHT22;22600;48.186;11.526;2023-04-07T05:47:46;22.40;53.90
34640;DHT22;22600;48.186;11.526;2023-04-07T05:50:14;22.30;53.90
34640;DHT22;22600;48.186;11.526;2023-04-07T05:52:40;22.30;54.00
34640;DHT22;22600;48.186;11.526;2023-04-07T05:55:05;22.30;54.00
34640;DHT22;22600;48.186;11.526;2023-04-07T05:57:31;22.30;53.80
34640;DHT22;22600;48.186;11.526;2023-04-07T05:59:57;22.30;53.70
34640;DHT22;22600;48.186;11.526;2023-04-07T06:02:23;22.40;53.80
34640;DHT22;22600;48.186;11.526;2023-04-07T06:04:48;22.50;53.70
34640;DHT22;22600;48.186;11.526;2023-04-07T06:07:14;22.30;53.50
34640;DHT22;22600;48.186;11.526;2023-04-07T06:09:39;22.30;53.50
34640;DHT22;22600;48.186;11.526;2023-04-07T06:12:07;22.30;53.60
34640;DHT22;22600;48.186;11.526;2023-04-07T06:14:33;22.30;53.60
34640;DHT22;22600;48.186;11.526;2023-04-07T06:16:59;22.30;53.80
34640;DHT22;22600;48.186;11.526;2023-04-07T06:19:24;22.30;53.90
34640;DHT22;22600;48.186;11.526;2023-04-07T06:21:51;22.30;53.90
34640;DHT22;22600;48.186;11.526;2023-04-07T06:24:17;22.30;54.10
34640;DHT22;22600;48.186;11.526;2023-04-07T06:26:43;22.30;54.50
34640;DHT22;22600;48.186;11.526;2023-04-07T06:29:08;22.30;54.60
34640;DHT22;22600;48.186;11.526;2023-04-07T06:31:34;22.30;54.60
34640;DHT22;22600;48.186;11.526;2023-04-07T06:33:59;22.40;54.40
34640;DHT22;22600;48.186;11.526;2023-04-07T06:36:25;22.30;54.00
34640;DHT22;22600;48.186;11.526;2023-04-07T06:38:51;22.30;54.30
34640;DHT22;22600;48.186;11.526;2023-04-07T06:41:17;22.40;54.10
34640;DHT22;22600;48.186;11.526;2023-04-07T06:43:43;22.40;53.90
34640;DHT22;22600;48.186;11.526;2023-04-07T06:46:09;22.30;53.70
34640;DHT22;22600;48.186;11.526;2023-04-07T06:48:34;22.30;54.00
34640;DHT22;22600;48.186;11.526;2023-04-07T06:51:00;22.30;54.00
34640;DHT22;22600;48.186;11.526;2023-04-07T06:53:25;22.40;54.30
34640;DHT22;22600;48.186;11.526;2023-04-07T06:55:51;22.30;54.20
34640;DHT22;22600;48.186;11.526;2023-04-07T06:58:16;22.30;54.40
34640;DHT22;22600;48.186;11.526;2023-04-07T07:00:42;22.30;54.20
34640;DHT22;22600;48.186;11.526;2023-04-07T07:03:07;22.40;54.40
34640;DHT22;22600;48.186;11.526;2023-04-07T07:05:32;22.30;54.70
34640;DHT22;22600;48.186;11.526;2023-04-07T07:07:58;22.30;54.80
34640;DHT22;22600;48.186;11.526;2023-04-07T07:10:23;22.30;54.80
34640;DHT22;22600;48.186;11.526;2023-04-07T07:12:49;22.30;54.80
34640;DHT22;22600;48.186;11.526;2023-04-07T07:15:15;22.40;54.60
34640;DHT22;22600;48.186;11.526;2023-04-07T07:17:41;22.30;53.80
34640;DHT22;22600;48.186;11.526;2023-04-07T07:20:07;22.40;53.20
34640;DHT22;22600;48.186;11.526;2023-04-07T07:22:32;22.40;52.90
34640;DHT22;22600;48.186;11.526;2023-04-07T07:24:58;22.40;52.80
34640;DHT22;22600;48.186;11.526;2023-04-07T07:27:23;24.30;53.40
34640;DHT22;22600;48.186;11.526;2023-04-07T07:29:49;22.40;52.30
34640;DHT22;22600;48.186;11.526;2023-04-07T07:32:14;22.40;52.60
34640;DHT22;22600;48.186;11.526;2023-04-07T07:34:40;22.40;53.00
34640;DHT22;22600;48.186;11.526;2023-04-07T07:37:05;22.30;53.20
34640;DHT22;22600;48.186;11.526;2023-04-07T07:39:31;22.40;53.50
34640;DHT22;22600;48.186;11.526;2023-04-07T07:41:56;22.40;53.60
34640;DHT22;22600;48.186;11.526;2023-04-07T07:44:22;22.50;53.80
34640;DHT22;22600;48.186;11.526;2023-04-07T07:46:48;22.50;53.90
34640;DHT22;22600;48.186;11.526;2023-04-07T07:49:14;22.40;54.00
34640;DHT22;22600;48.186;11.526;2023-04-07T07:51:39;22.50;54.10
34640;DHT22;22600;48.186;11.526;2023-04-07T07:54:05;22.50;54.20
34640;DHT22;22600;48.186;11.526;2023-04-07T07:56:30;22.50;54.30
34640;DHT22;22600;48.186;11.526;2023-04-07T07:58:56;22.50;54.40
34640;DHT22;22600;48.186;11.526;2023-04-07T08:01:21;25.10;55.70
34640;DHT22;22600;48.186;11.526;2023-04-07T08:03:47;22.60;54.50
34640;DHT22;22600;48.186;11.526;2023-04-07T08:06:12;22.50;54.10
34640;DHT22;22600;48.186;11.526;2023-04-07T08:08:38;22.50;54.60
34640;DHT22;22600;48.186;11.526;2023-04-07T08:11:03;22.50;54.70
34640;DHT22;22600;48.186;11.526;2023-04-07T08:13:29;22.60;54.70
34640;DHT22;22600;48.186;11.526;2023-04-07T08:15:54;22.60;54.80
34640;DHT22;22600;48.186;11.526;2023-04-07T08:18:20;22.60;54.80
34640;DHT22;22600;48.186;11.526;2023-04-07T08:20:45;22.60;54.80
34640;DHT22;22600;48.186;11.526;2023-04-07T08:23:11;22.60;54.80
34640;DHT22;22600;48.186;11.526;2023-04-07T08:25:36;22.60;54.60
34640;DHT22;22600;48.186;11.526;2023-04-07T08:28:04;22.60;54.00
34640;DHT22;22600;48.186;11.526;2023-04-07T08:30:30;22.60;53.50
34640;DHT22;22600;48.186;11.526;2023-04-07T08:32:55;22.60;53.30
34640;DHT22;22600;48.186;11.526;2023-04-07T08:35:21;22.80;53.40
34640;DHT22;22600;48.186;11.526;2023-04-07T08:37:47;22.60;53.00
34640;DHT22;22600;48.186;11.526;2023-04-07T08:40:13;22.70;52.50
34640;DHT22;22600;48.186;11.526;2023-04-07T08:42:40;22.70;52.10
34640;DHT22;22600;48.186;11.526;2023-04-07T08:45:07;22.60;51.30
34640;DHT22;22600;48.186;11.526;2023-04-07T08:47:34;22.60;51.10
34640;DHT22;22600;48.186;11.526;2023-04-07T08:50:00;22.60;50.50
34640;DHT22;22600;48.186;11.526;2023-04-07T08:55:00;22.60;49.50
34640;DHT22;22600;48.186;11.526;2023-04-07T08:57:31;22.60;49.00
34640;DHT22;22600;48.186;11.526;2023-04-07T08:59:57;22.60;48.60
34640;DHT22;22600;48.186;11.526;2023-04-07T09:02:24;22.60;47.90
34640;DHT22;22600;48.186;11.526;2023-04-07T09:04:50;22.60;47.40
34640;DHT22;22600;48.186;11.526;2023-04-07T09:07:16;22.60;47.10
34640;DHT22;22600;48.186;11.526;2023-04-07T09:09:41;22.50;47.00
34640;DHT22;22600;48.186;11.526;2023-04-07T09:12:07;22.50;46.80
34640;DHT22;22600;48.186;11.526;2023-04-07T09:14:32;22.40;46.60
34640;DHT22;22600;48.186;11.526;2023-04-07T09:16:58;22.50;46.70
34640;DHT22;22600;48.186;11.526;2023-04-07T09:19:25;22.50;46.90
34640;DHT22;22600;48.186;11.526;2023-04-07T09:21:51;22.50;47.00
34640;DHT22;22600;48.186;11.526;2023-04-07T09:24:24;22.50;47.30
34640;DHT22;22600;48.186;11.526;2023-04-07T09:26:50;22.50;47.50
34640;DHT22;22600;48.186;11.526;2023-04-07T09:29:17;22.50;47.70
34640;DHT22;22600;48.186;11.526;2023-04-07T09:36:48;22.50;48.40
34640;DHT22;22600;48.186;11.526;2023-04-07T09:39:14;22.50;48.60
34640;DHT22;22600;48.186;11.526;2023-04-07T09:41:39;22.50;48.90
34640;DHT22;22600;48.186;11.526;2023-04-07T09:44:06;22.50;49.10
34640;DHT22;22600;48.186;11.526;2023-04-07T09:46:31;22.50;49.20
34640;DHT22;22600;48.186;11.526;2023-04-07T09:49:03;22.60;49.50
34640;DHT22;22600;48.186;11.526;2023-04-07T09:51:32;22.60;49.60
34640;DHT22;22600;48.186;11.526;2023-04-07T09:54:00;22.60;49.80
34640;DHT22;22600;48.186;11.526;2023-04-07T09:56:26;22.50;49.90
34640;DHT22;22600;48.186;11.526;2023-04-07T09:58:53;22.60;50.10
34640;DHT22;22600;48.186;11.526;2023-04-07T10:01:19;23.80;50.80
34640;DHT22;22600;48.186;11.526;2023-04-07T10:03:45;22.40;50.30
34640;DHT22;22600;48.186;11.526;2023-04-07T10:06:11;22.60;50.60
34640;DHT22;22600;48.186;11.526;2023-04-07T10:08:38;22.60;50.70
34640;DHT22;22600;48.186;11.526;2023-04-07T10:11:04;22.60;50.80
34640;DHT22;22600;48.186;11.526;2023-04-07T10:13:34;22.20;50.70
34640;DHT22;22600;48.186;11.526;2023-04-07T10:16:04;22.70;51.00
34640;DHT22;22600;48.186;11.526;2023-04-07T10:18:31;22.80;51.20
34640;DHT22;22600;48.186;11.526;2023-04-07T10:20:59;22.70;51.20
34640;DHT22;22600;48.186;11.526;2023-04-07T10:23:31;22.70;51.30
34640;DHT22;22600;48.186;11.526;2023-04-07T10:25:58;22.90;51.50
34640;DHT22;22600;48.186;11.526;2023-04-07T10:28:27;22.80;51.60
34640;DHT22;22600;48.186;11.526;2023-04-07T10:30:53;22.80;51.70
34640;DHT22;22600;48.186;11.526;2023-04-07T10:36:06;22.80;51.80
34640;DHT22;22600;48.186;11.526;2023-04-07T10:38:31;22.80;51.70
34640;DHT22;22600;48.186;11.526;2023-04-07T10:40:57;22.80;51.90
34640;DHT22;22600;48.186;11.526;2023-04-07T10:43:36;22.80;52.00
34640;DHT22;22600;48.186;11.526;2023-04-07T10:46:03;20.60;51.00
34640;DHT22;22600;48.186;11.526;2023-04-07T10:48:28;22.90;52.10
34640;DHT22;22600;48.186;11.526;2023-04-07T10:53:28;22.90;52.20
34640;DHT22;22600;48.186;11.526;2023-04-07T10:55:54;22.90;52.20
34640;DHT22;22600;48.186;11.526;2023-04-07T11:03:21;22.90;52.30
34640;DHT22;22600;48.186;11.526;2023-04-07T11:05:47;22.80;51.80
34640;DHT22;22600;48.186;11.526;2023-04-07T11:08:12;22.90;52.40
34640;DHT22;22600;48.186;11.526;2023-04-07T11:10:38;22.90;52.40
34640;DHT22;22600;48.186;11.526;2023-04-07T11:13:04;22.90;52.40
34640;DHT22;22600;48.186;11.526;2023-04-07T11:15:30;23.30;52.60
34640;DHT22;22600;48.186;11.526;2023-04-07T11:18:09;22.90;52.50
34640;DHT22;22600;48.186;11.526;2023-04-07T11:20:51;22.90;52.50
34640;DHT22;22600;48.186;11.526;2023-04-07T11:23:18;22.90;52.50
34640;DHT22;22600;48.186;11.526;2023-04-07T11:25:45;22.90;52.60
34640;DHT22;22600;48.186;11.526;2023-04-07T11:28:11;22.90;52.70
34640;DHT22;22600;48.186;11.526;2023-04-07T11:30:37;22.90;52.60
34640;DHT22;22600;48.186;11.526;2023-04-07T11:33:03;22.90;52.70
34640;DHT22;22600;48.186;11.526;2023-04-07T11:35:28;22.90;52.70
34640;DHT22;22600;48.186;11.526;2023-04-07T11:37:57;22.90;51.60
34640;DHT22;22600;48.186;11.526;2023-04-07T11:40:34;22.90;51.60
34640;DHT22;22600;48.186;11.526;2023-04-07T11:43:01;22.90;51.00
34640;DHT22;22600;48.186;11.526;2023-04-07T11:45:27;22.90;50.30
34640;DHT22;22600;48.186;11.526;2023-04-07T11:47:52;22.90;49.80
34640;DHT22;22600;48.186;11.526;2023-04-07T11:50:37;22.90;49.50
34640;DHT22;22600;48.186;11.526;2023-04-07T11:53:03;22.90;49.30
34640;DHT22;22600;48.186;11.526;2023-04-07T11:55:28;22.90;49.10
34640;DHT22;22600;48.186;11.526;2023-04-07T11:57:54;22.90;48.90
34640;DHT22;22600;48.186;11.526;2023-04-07T12:00:19;22.90;48.80
34640;DHT22;22600;48.186;11.526;2023-04-07T12:02:45;22.80;48.60
34640;DHT22;22600;48.186;11.526;2023-04-07T12:05:11;22.80;48.60
34640;DHT22;22600;48.186;11.526;2023-04-07T12:07:37;22.80;48.60
34640;DHT22;22600;48.186;11.526;2023-04-07T12:10:22;22.80;48.60
34640;DHT22;22600;48.186;11.526;2023-04-07T12:12:47;22.80;48.60
34640;DHT22;22600;48.186;11.526;2023-04-07T12:15:13;22.80;48.60
34640;DHT22;22600;48.186;11.526;2023-04-07T12:17:43;22.80;48.70
34640;DHT22;22600;48.186;11.526;2023-04-07T12:20:08;22.70;48.70
34640;DHT22;22600;48.186;11.526;2023-04-07T12:22:34;22.80;48.80
34640;DHT22;22600;48.186;11.526;2023-04-07T12:25:00;22.70;48.70
34640;DHT22;22600;48.186;11.526;2023-04-07T12:27:25;22.70;48.80
34640;DHT22;22600;48.186;11.526;2023-04-07T12:29:51;22.70;48.80
34640;DHT22;22600;48.186;11.526;2023-04-07T12:32:17;22.70;48.80
34640;DHT22;22600;48.186;11.526;2023-04-07T12:34:43;22.70;48.80
34640;DHT22;22600;48.186;11.526;2023-04-07T12:37:09;22.70;48.80
34640;DHT22;22600;48.186;11.526;2023-04-07T12:39:34;22.70;48.80
34640;DHT22;22600;48.186;11.526;2023-04-07T12:42:00;22.70;48.80
34640;DHT22;22600;48.186;11.526;2023-04-07T12:44:25;22.70;48.80
34640;DHT22;22600;48.186;11.526;2023-04-07T12:46:51;22.70;48.80
34640;DHT22;22600;48.186;11.526;2023-04-07T12:49:16;21.10;48.10
34640;DHT22;22600;48.186;11.526;2023-04-07T12:51:41;23.40;49.30
34640;DHT22;22600;48.186;11.526;2023-04-07T12:54:07;22.60;48.90
34640;DHT22;22600;48.186;11.526;2023-04-07T12:56:32;22.60;49.00
34640;DHT22;22600;48.186;11.526;2023-04-07T12:58:58;22.70;49.10
34640;DHT22;22600;48.186;11.526;2023-04-07T13:01:24;22.60;49.00
34640;DHT22;22600;48.186;11.526;2023-04-07T13:03:50;22.60;49.10
34640;DHT22;22600;48.186;11.526;2023-04-07T13:06:15;18.90;47.40
34640;DHT22;22600;48.186;11.526;2023-04-07T13:08:41;22.60;49.20
34640;DHT22;22600;48.186;11.526;2023-04-07T13:11:07;22.60;49.10
34640;DHT22;22600;48.186;11.526;2023-04-07T13:13:32;20.30;48.00
34640;DHT22;22600;48.186;11.526;2023-04-07T13:15:58;22.60;49.10
34640;DHT22;22600;48.186;11.526;2023-04-07T13:18:23;22.60;49.10
34640;DHT22;22600;48.186;11.526;2023-04-07T13:20:49;22.60;49.20
34640;DHT22;22600;48.186;11.526;2023-04-07T13:23:15;22.60;49.20
34640;DHT22;22600;48.186;11.526;2023-04-07T13:25:41;22.60;49.20
34640;DHT22;22600;48.186;11.526;2023-04-07T13:28:06;22.60;48.60
34640;DHT22;22600;48.186;11.526;2023-04-07T13:30:32;22.70;49.20
34640;DHT22;22600;48.186;11.526;2023-04-07T13:32:58;22.60;49.20
34640;DHT22;22600;48.186;11.526;2023-04-07T13:35:23;22.60;49.20
34640;DHT22;22600;48.186;11.526;2023-04-07T13:37:49;22.00;48.90
34640;DHT22;22600;48.186;11.526;2023-04-07T13:40:15;22.60;49.20
34640;DHT22;22600;48.186;11.526;2023-04-07T13:42:40;22.60;49.20
34640;DHT22;22600;48.186;11.526;2023-04-07T13:45:06;22.60;49.20
34640;DHT22;22600;48.186;11.526;2023-04-07T13:47:31;22.60;49.30
34640;DHT22;22600;48.186;11.526;2023-04-07T13:49:59;22.60;49.30
34640;DHT22;22600;48.186;11.526;2023-04-07T13:52:24;22.60;49.30
34640;DHT22;22600;48.186;11.526;2023-04-07T13:54:50;22.60;49.30
34640;DHT22;22600;48.186;11.526;2023-04-07T13:57:15;22.60;49.30
34640;DHT22;22600;48.186;11.526;2023-04-07T13:59:47;22.60;49.30
34640;DHT22;22600;48.186;11.526;2023-04-07T14:02:13;22.60;49.30
34640;DHT22;22600;48.186;11.526;2023-04-07T14:04:39;22.60;49.30
34640;DHT22;22600;48.186;11.526;2023-04-07T14:07:04;22.60;49.30
34640;DHT22;22600;48.186;11.526;2023-04-07T14:09:30;22.60;49.40
34640;DHT22;22600;48.186;11.526;2023-04-07T14:11:55;22.60;49.40
34640;DHT22;22600;48.186;11.526;2023-04-07T14:14:21;22.60;49.40
34640;DHT22;22600;48.186;11.526;2023-04-07T14:16:47;22.60;49.50
34640;DHT22;22600;48.186;11.526;2023-04-07T14:19:16;22.50;49.40
34640;DHT22;22600;48.186;11.526;2023-04-07T14:21:41;22.50;49.40
34640;DHT22;22600;48.186;11.526;2023-04-07T14:24:07;22.50;48.90
34640;DHT22;22600;48.186;11.526;2023-04-07T14:26:32;22.50;49.50
34640;DHT22;22600;48.186;11.526;2023-04-07T14:28:58;22.50;49.50
34640;DHT22;22600;48.186;11.526;2023-04-07T14:31:23;22.60;49.60
34640;DHT22;22600;48.186;11.526;2023-04-07T14:33:49;22.50;49.50
34640;DHT22;22600;48.186;11.526;2023-04-07T14:36:14;22.50;49.50
34640;DHT22;22600;48.186;11.526;2023-04-07T14:38:42;22.50;49.60
34640;DHT22;22600;48.186;11.526;2023-04-07T14:41:08;22.50;49.60
34640;DHT22;22600;48.186;11.526;2023-04-07T14:43:33;22.50;49.60
34640;DHT22;22600;48.186;11.526;2023-04-07T14:46:00;22.50;49.60
34640;DHT22;22600;48.186;11.526;2023-04-07T14:48:25;22.50;49.60
34640;DHT22;22600;48.186;11.526;2023-04-07T14:50:51;22.50;50.20
34640;DHT22;22600;48.186;11.526;2023-04-07T14:53:16;22.50;49.60
34640;DHT22;22600;48.186;11.526;2023-04-07T14:55:42;22.50;49.60
34640;DHT22;22600;48.186;11.526;2023-04-07T14:58:08;22.50;49.60
34640;DHT22;22600;48.186;11.526;2023-04-07T15:00:33;22.50;49.60
34640;DHT22;22600;48.186;11.526;2023-04-07T15:02:59;22.50;49.60
34640;DHT22;22600;48.186;11.526;2023-04-07T15:05:24;22.50;49.60
34640;DHT22;22600;48.186;11.526;2023-04-07T15:07:53;22.50;49.60
34640;DHT22;22600;48.186;11.526;2023-04-07T15:10:19;22.40;49.10
34640;DHT22;22600;48.186;11.526;2023-04-07T15:12:45;22.50;49.60
34640;DHT22;22600;48.186;11.526;2023-04-07T15:15:14;22.50;49.60
34640;DHT22;22600;48.186;11.526;2023-04-07T15:17:40;22.50;49.60
34640;DHT22;22600;48.186;11.526;2023-04-07T15:20:06;22.50;49.60
34640;DHT22;22600;48.186;11.526;2023-04-07T15:22:31;22.50;49.50
34640;DHT22;22600;48.186;11.526;2023-04-07T15:24:57;22.50;49.50
34640;DHT22;22600;48.186;11.526;2023-04-07T15:27:22;22.50;49.60
34640;DHT22;22600;48.186;11.526;2023-04-07T15:29:48;22.50;49.50
34640;DHT22;22600;48.186;11.526;2023-04-07T15:32:13;22.50;49.50